Ferryville, Wisconsin
Current Conditions -  °F | °C
As of 8:35 AM on Tuesday 21 Oct 2014 (Local Time) from KY51 Reporting Station
Clear Clear  
Wind Chill: 36°   Ceiling: Unl
Heat Index: 40°   Visibility: 10mi
Dew Point: 40°   Wind: 6mph
Humidity: 97%   Direction: 70°ENE
Pressure: 30.2"   Gusts: NA
Location:  43.35°N, 91.1°W
Report Text: KY51 211335Z AUTO 07005KT 10SM CLR 05/04 A3020 RMK AO1 T00460042
Loading
Personal Weather Stations






























Interactive Weather Map
Tropical Storm Tracking
New forecast layout! Learn more

10-Day Weather Forecast

Advertisements
Track Severe Weather on mobile